Mauchline, United Kingdom
Current Conditions -  °F | °C
As of 11:20 PM on Thursday 18 Dec 2014 (Local Time) from EGPK Reporting Station
Light Rain Light Rain  
Wind Chill: 38°   Ceiling: Unl
Heat Index: 45°   Visibility: 6mi
Dew Point: 39°   Wind: 15mph
Humidity: 81%   Direction: 250°WSW
Pressure: 29.56"   Gusts: NA
Location:  55.52°N, 4.38°W
Report Text: EGPK 182320Z 25013KT 9999 -RA FEW012 SCT020 07/04 Q1001
Loading
Personal Weather Stations






























Interactive Weather Map New forecast layout! Learn more

10-Day Weather Forecast

Advertisements
Track Severe Weather on mobile